sensor_id;sensor_type;location;lat;lon;timestamp;temperature;humidity
19928;DHT22;10126;50.876;4.470;2022-11-15T00:01:09;12.40;99.90
19928;DHT22;10126;50.876;4.470;2022-11-15T00:03:11;12.40;99.90
19928;DHT22;10126;50.876;4.470;2022-11-15T00:05:13;12.40;99.90
19928;DHT22;10126;50.876;4.470;2022-11-15T00:07:13;12.40;99.90
19928;DHT22;10126;50.876;4.470;2022-11-15T00:09:14;12.40;99.90
19928;DHT22;10126;50.876;4.470;2022-11-15T00:11:15;12.40;99.90
19928;DHT22;10126;50.876;4.470;2022-11-15T00:13:15;12.50;99.90
19928;DHT22;10126;50.876;4.470;2022-11-15T00:15:16;12.60;99.90
19928;DHT22;10126;50.876;4.470;2022-11-15T00:17:17;12.60;99.90
19928;DHT22;10126;50.876;4.470;2022-11-15T00:19:17;12.60;99.90
19928;DHT22;10126;50.876;4.470;2022-11-15T00:21:18;12.60;99.90
19928;DHT22;10126;50.876;4.470;2022-11-15T00:23:18;12.60;99.90
19928;DHT22;10126;50.876;4.470;2022-11-15T00:25:19;12.50;99.90
19928;DHT22;10126;50.876;4.470;2022-11-15T00:27:20;12.40;99.90
19928;DHT22;10126;50.876;4.470;2022-11-15T00:29:20;12.40;99.90
19928;DHT22;10126;50.876;4.470;2022-11-15T00:31:21;12.40;99.90
19928;DHT22;10126;50.876;4.470;2022-11-15T00:33:21;12.60;99.90
19928;DHT22;10126;50.876;4.470;2022-11-15T00:35:22;12.50;99.90
19928;DHT22;10126;50.876;4.470;2022-11-15T00:37:23;12.50;99.90
19928;DHT22;10126;50.876;4.470;2022-11-15T00:39:23;12.50;99.90
19928;DHT22;10126;50.876;4.470;2022-11-15T00:41:24;12.50;99.90
19928;DHT22;10126;50.876;4.470;2022-11-15T00:43:25;12.50;99.90
19928;DHT22;10126;50.876;4.470;2022-11-15T00:45:26;12.40;99.90
19928;DHT22;10126;50.876;4.470;2022-11-15T00:47:26;12.50;99.90
19928;DHT22;10126;50.876;4.470;2022-11-15T00:49:27;12.50;99.90
19928;DHT22;10126;50.876;4.470;2022-11-15T00:51:27;12.50;99.90
19928;DHT22;10126;50.876;4.470;2022-11-15T00:53:28;12.60;99.90
19928;DHT22;10126;50.876;4.470;2022-11-15T00:55:29;12.70;99.90
19928;DHT22;10126;50.876;4.470;2022-11-15T00:57:30;12.80;99.90
19928;DHT22;10126;50.876;4.470;2022-11-15T00:59:30;12.80;99.90
19928;DHT22;10126;50.876;4.470;2022-11-15T01:01:31;12.90;99.90
19928;DHT22;10126;50.876;4.470;2022-11-15T01:03:33;12.90;99.90
19928;DHT22;10126;50.876;4.470;2022-11-15T01:05:37;12.80;99.90
19928;DHT22;10126;50.876;4.470;2022-11-15T01:07:37;12.70;99.90
19928;DHT22;10126;50.876;4.470;2022-11-15T01:09:38;12.70;99.90
19928;DHT22;10126;50.876;4.470;2022-11-15T01:11:39;12.70;99.90
19928;DHT22;10126;50.876;4.470;2022-11-15T01:13:40;12.70;99.90
19928;DHT22;10126;50.876;4.470;2022-11-15T01:15:40;12.70;99.90
19928;DHT22;10126;50.876;4.470;2022-11-15T01:17:41;12.80;99.90
19928;DHT22;10126;50.876;4.470;2022-11-15T01:19:42;12.80;99.90
19928;DHT22;10126;50.876;4.470;2022-11-15T01:21:43;12.80;99.90
19928;DHT22;10126;50.876;4.470;2022-11-15T01:23:43;13.00;99.90
19928;DHT22;10126;50.876;4.470;2022-11-15T01:25:45;13.00;99.90
19928;DHT22;10126;50.876;4.470;2022-11-15T01:27:45;13.00;99.90
19928;DHT22;10126;50.876;4.470;2022-11-15T01:29:46;13.00;99.90
19928;DHT22;10126;50.876;4.470;2022-11-15T01:31:47;12.80;99.90
19928;DHT22;10126;50.876;4.470;2022-11-15T01:33:48;12.90;99.90
19928;DHT22;10126;50.876;4.470;2022-11-15T01:35:48;12.90;99.90
19928;DHT22;10126;50.876;4.470;2022-11-15T01:37:49;12.90;99.90
19928;DHT22;10126;50.876;4.470;2022-11-15T01:39:49;12.90;99.90
19928;DHT22;10126;50.876;4.470;2022-11-15T01:41:50;12.90;99.90
19928;DHT22;10126;50.876;4.470;2022-11-15T01:46:34;12.80;99.90
19928;DHT22;10126;50.876;4.470;2022-11-15T01:48:36;12.80;99.90
19928;DHT22;10126;50.876;4.470;2022-11-15T01:50:37;12.70;99.90
19928;DHT22;10126;50.876;4.470;2022-11-15T01:52:39;12.70;99.90
19928;DHT22;10126;50.876;4.470;2022-11-15T01:54:40;12.70;99.90
19928;DHT22;10126;50.876;4.470;2022-11-15T01:56:56;12.70;99.90
19928;DHT22;10126;50.876;4.470;2022-11-15T01:58:59;12.70;99.90
19928;DHT22;10126;50.876;4.470;2022-11-15T02:01:02;12.90;99.90
19928;DHT22;10126;50.876;4.470;2022-11-15T02:03:03;12.90;99.90
19928;DHT22;10126;50.876;4.470;2022-11-15T02:05:04;12.90;99.90
19928;DHT22;10126;50.876;4.470;2022-11-15T02:07:05;12.90;99.90
19928;DHT22;10126;50.876;4.470;2022-11-15T02:09:07;13.10;99.90
19928;DHT22;10126;50.876;4.470;2022-11-15T02:11:08;12.90;99.90
19928;DHT22;10126;50.876;4.470;2022-11-15T02:13:09;12.90;99.90
19928;DHT22;10126;50.876;4.470;2022-11-15T02:15:11;13.00;99.90
19928;DHT22;10126;50.876;4.470;2022-11-15T02:21:45;13.10;99.90
19928;DHT22;10126;50.876;4.470;2022-11-15T02:26:30;13.10;99.90
19928;DHT22;10126;50.876;4.470;2022-11-15T02:36:00;13.00;99.90
19928;DHT22;10126;50.876;4.470;2022-11-15T02:40:52;12.70;99.90
19928;DHT22;10126;50.876;4.470;2022-11-15T02:42:57;12.80;99.90
19928;DHT22;10126;50.876;4.470;2022-11-15T02:45:26;12.80;99.90
19928;DHT22;10126;50.876;4.470;2022-11-15T02:47:30;12.90;99.90
19928;DHT22;10126;50.876;4.470;2022-11-15T02:49:34;12.70;99.90
19928;DHT22;10126;50.876;4.470;2022-11-15T02:51:35;12.70;99.90
19928;DHT22;10126;50.876;4.470;2022-11-15T02:53:36;12.70;99.90
19928;DHT22;10126;50.876;4.470;2022-11-15T02:55:46;12.70;99.90
19928;DHT22;10126;50.876;4.470;2022-11-15T03:00:20;12.70;99.90
19928;DHT22;10126;50.876;4.470;2022-11-15T03:09:57;12.90;99.90
19928;DHT22;10126;50.876;4.470;2022-11-15T03:14:21;12.70;99.90
19928;DHT22;10126;50.876;4.470;2022-11-15T03:18:59;12.90;99.90
19928;DHT22;10126;50.876;4.470;2022-11-15T03:21:04;13.00;99.90
19928;DHT22;10126;50.876;4.470;2022-11-15T03:23:10;12.90;99.90
19928;DHT22;10126;50.876;4.470;2022-11-15T03:25:16;12.80;99.90
19928;DHT22;10126;50.876;4.470;2022-11-15T03:27:21;12.80;99.90
19928;DHT22;10126;50.876;4.470;2022-11-15T03:29:27;12.80;99.90
19928;DHT22;10126;50.876;4.470;2022-11-15T03:31:33;12.70;99.90
19928;DHT22;10126;50.876;4.470;2022-11-15T03:33:49;12.80;99.90
19928;DHT22;10126;50.876;4.470;2022-11-15T03:35:52;12.80;99.90
19928;DHT22;10126;50.876;4.470;2022-11-15T03:38:21;12.80;99.90
19928;DHT22;10126;50.876;4.470;2022-11-15T03:40:30;12.70;99.90
19928;DHT22;10126;50.876;4.470;2022-11-15T03:42:42;12.60;99.90
19928;DHT22;10126;50.876;4.470;2022-11-15T03:47:16;12.60;99.90
19928;DHT22;10126;50.876;4.470;2022-11-15T03:49:40;12.50;99.90
19928;DHT22;10126;50.876;4.470;2022-11-15T03:51:43;12.60;99.90
19928;DHT22;10126;50.876;4.470;2022-11-15T03:53:43;12.50;99.90
19928;DHT22;10126;50.876;4.470;2022-11-15T03:55:44;12.50;99.90
19928;DHT22;10126;50.876;4.470;2022-11-15T03:57:46;12.50;99.90
19928;DHT22;10126;50.876;4.470;2022-11-15T03:59:47;12.40;99.90
19928;DHT22;10126;50.876;4.470;2022-11-15T04:01:47;12.30;99.90
19928;DHT22;10126;50.876;4.470;2022-11-15T04:03:48;12.40;99.90
19928;DHT22;10126;50.876;4.470;2022-11-15T04:05:49;12.40;99.90
19928;DHT22;10126;50.876;4.470;2022-11-15T04:07:49;12.50;99.90
19928;DHT22;10126;50.876;4.470;2022-11-15T04:09:50;12.50;99.90
19928;DHT22;10126;50.876;4.470;2022-11-15T04:12:03;12.50;99.90
19928;DHT22;10126;50.876;4.470;2022-11-15T04:14:04;12.50;99.90
19928;DHT22;10126;50.876;4.470;2022-11-15T04:16:04;12.40;99.90
19928;DHT22;10126;50.876;4.470;2022-11-15T04:18:05;12.40;99.90
19928;DHT22;10126;50.876;4.470;2022-11-15T04:20:08;12.50;99.90
19928;DHT22;10126;50.876;4.470;2022-11-15T04:22:28;12.50;99.90
19928;DHT22;10126;50.876;4.470;2022-11-15T04:24:47;12.40;99.90
19928;DHT22;10126;50.876;4.470;2022-11-15T04:26:48;12.40;99.90
19928;DHT22;10126;50.876;4.470;2022-11-15T04:28:49;12.30;99.90
19928;DHT22;10126;50.876;4.470;2022-11-15T04:31:08;12.30;99.90
19928;DHT22;10126;50.876;4.470;2022-11-15T04:33:09;12.20;99.90
19928;DHT22;10126;50.876;4.470;2022-11-15T04:35:09;12.10;99.90
19928;DHT22;10126;50.876;4.470;2022-11-15T04:37:10;12.10;99.90
19928;DHT22;10126;50.876;4.470;2022-11-15T04:39:13;12.20;99.90
19928;DHT22;10126;50.876;4.470;2022-11-15T04:41:14;12.30;99.90
19928;DHT22;10126;50.876;4.470;2022-11-15T04:43:14;12.30;99.90
19928;DHT22;10126;50.876;4.470;2022-11-15T04:45:15;12.30;99.90
19928;DHT22;10126;50.876;4.470;2022-11-15T04:47:16;12.30;99.90
19928;DHT22;10126;50.876;4.470;2022-11-15T04:49:16;12.20;99.90
19928;DHT22;10126;50.876;4.470;2022-11-15T04:51:17;12.30;99.90
19928;DHT22;10126;50.876;4.470;2022-11-15T04:53:18;12.20;99.90
19928;DHT22;10126;50.876;4.470;2022-11-15T04:55:19;12.20;99.90
19928;DHT22;10126;50.876;4.470;2022-11-15T04:57:19;12.10;99.90
19928;DHT22;10126;50.876;4.470;2022-11-15T04:59:20;11.90;99.90
19928;DHT22;10126;50.876;4.470;2022-11-15T05:01:21;12.00;99.90
19928;DHT22;10126;50.876;4.470;2022-11-15T05:03:21;11.80;99.90
19928;DHT22;10126;50.876;4.470;2022-11-15T05:05:41;11.70;99.90
19928;DHT22;10126;50.876;4.470;2022-11-15T05:07:42;11.80;99.90
19928;DHT22;10126;50.876;4.470;2022-11-15T05:09:42;11.70;99.90
19928;DHT22;10126;50.876;4.470;2022-11-15T05:11:43;11.60;99.90
19928;DHT22;10126;50.876;4.470;2022-11-15T05:13:43;11.50;99.90
19928;DHT22;10126;50.876;4.470;2022-11-15T05:15:44;11.50;99.90
19928;DHT22;10126;50.876;4.470;2022-11-15T05:17:45;11.60;99.90
19928;DHT22;10126;50.876;4.470;2022-11-15T05:19:45;11.50;99.90
19928;DHT22;10126;50.876;4.470;2022-11-15T05:21:47;11.50;99.90
19928;DHT22;10126;50.876;4.470;2022-11-15T05:23:47;11.30;99.90
19928;DHT22;10126;50.876;4.470;2022-11-15T05:25:48;11.40;99.90
19928;DHT22;10126;50.876;4.470;2022-11-15T05:27:49;11.20;99.90
19928;DHT22;10126;50.876;4.470;2022-11-15T05:29:49;11.20;99.90
19928;DHT22;10126;50.876;4.470;2022-11-15T05:31:50;11.20;99.90
19928;DHT22;10126;50.876;4.470;2022-11-15T05:33:51;11.10;99.90
19928;DHT22;10126;50.876;4.470;2022-11-15T05:35:57;11.00;99.90
19928;DHT22;10126;50.876;4.470;2022-11-15T05:37:59;11.00;99.90
19928;DHT22;10126;50.876;4.470;2022-11-15T05:40:00;10.90;99.90
19928;DHT22;10126;50.876;4.470;2022-11-15T05:42:10;11.10;99.90
19928;DHT22;10126;50.876;4.470;2022-11-15T05:44:14;11.20;99.90
19928;DHT22;10126;50.876;4.470;2022-11-15T05:46:16;11.30;99.90
19928;DHT22;10126;50.876;4.470;2022-11-15T05:48:17;11.20;99.90
19928;DHT22;10126;50.876;4.470;2022-11-15T05:50:18;11.30;99.90
19928;DHT22;10126;50.876;4.470;2022-11-15T05:52:22;11.30;99.90
19928;DHT22;10126;50.876;4.470;2022-11-15T05:54:25;11.40;99.90
19928;DHT22;10126;50.876;4.470;2022-11-15T05:56:25;11.40;99.90
19928;DHT22;10126;50.876;4.470;2022-11-15T05:58:26;11.20;99.90
19928;DHT22;10126;50.876;4.470;2022-11-15T06:00:27;11.20;99.90
19928;DHT22;10126;50.876;4.470;2022-11-15T06:02:28;11.10;99.90
19928;DHT22;10126;50.876;4.470;2022-11-15T06:04:29;11.00;99.90
19928;DHT22;10126;50.876;4.470;2022-11-15T06:06:29;10.90;99.90
19928;DHT22;10126;50.876;4.470;2022-11-15T06:08:30;10.90;99.90
19928;DHT22;10126;50.876;4.470;2022-11-15T06:10:31;10.80;99.90
19928;DHT22;10126;50.876;4.470;2022-11-15T06:12:31;11.00;99.90
19928;DHT22;10126;50.876;4.470;2022-11-15T06:14:32;10.90;99.90
19928;DHT22;10126;50.876;4.470;2022-11-15T06:16:32;10.80;99.90
19928;DHT22;10126;50.876;4.470;2022-11-15T06:18:34;10.70;99.90
19928;DHT22;10126;50.876;4.470;2022-11-15T06:20:34;10.60;99.90
19928;DHT22;10126;50.876;4.470;2022-11-15T06:22:35;10.40;99.90
19928;DHT22;10126;50.876;4.470;2022-11-15T06:24:35;10.40;99.90
19928;DHT22;10126;50.876;4.470;2022-11-15T06:26:36;10.50;99.90
19928;DHT22;10126;50.876;4.470;2022-11-15T06:28:37;10.60;99.90
19928;DHT22;10126;50.876;4.470;2022-11-15T06:30:37;10.80;99.90
19928;DHT22;10126;50.876;4.470;2022-11-15T06:32:38;10.70;99.90
19928;DHT22;10126;50.876;4.470;2022-11-15T06:34:38;10.60;99.90
19928;DHT22;10126;50.876;4.470;2022-11-15T06:36:39;10.50;99.90
19928;DHT22;10126;50.876;4.470;2022-11-15T06:38:40;10.40;99.90
19928;DHT22;10126;50.876;4.470;2022-11-15T06:40:40;10.40;99.90
19928;DHT22;10126;50.876;4.470;2022-11-15T06:42:41;10.40;99.90
19928;DHT22;10126;50.876;4.470;2022-11-15T06:44:41;10.30;99.90
19928;DHT22;10126;50.876;4.470;2022-11-15T06:46:42;10.30;99.90
19928;DHT22;10126;50.876;4.470;2022-11-15T06:48:43;10.30;99.90
19928;DHT22;10126;50.876;4.470;2022-11-15T06:50:53;10.30;99.90
19928;DHT22;10126;50.876;4.470;2022-11-15T06:52:54;10.20;99.90
19928;DHT22;10126;50.876;4.470;2022-11-15T06:54:55;10.20;99.90
19928;DHT22;10126;50.876;4.470;2022-11-15T06:56:56;10.20;99.90
19928;DHT22;10126;50.876;4.470;2022-11-15T06:58:56;10.10;99.90
19928;DHT22;10126;50.876;4.470;2022-11-15T07:01:11;10.10;99.90
19928;DHT22;10126;50.876;4.470;2022-11-15T07:03:12;10.10;99.90
19928;DHT22;10126;50.876;4.470;2022-11-15T07:05:13;10.00;99.90
19928;DHT22;10126;50.876;4.470;2022-11-15T07:07:14;10.10;99.90
19928;DHT22;10126;50.876;4.470;2022-11-15T07:09:15;10.10;99.90
19928;DHT22;10126;50.876;4.470;2022-11-15T07:11:15;10.00;99.90
19928;DHT22;10126;50.876;4.470;2022-11-15T07:13:16;9.90;99.90
19928;DHT22;10126;50.876;4.470;2022-11-15T07:15:18;9.90;99.90
19928;DHT22;10126;50.876;4.470;2022-11-15T07:17:19;9.90;99.90
19928;DHT22;10126;50.876;4.470;2022-11-15T07:19:20;9.90;99.90
19928;DHT22;10126;50.876;4.470;2022-11-15T07:21:20;9.90;99.90
19928;DHT22;10126;50.876;4.470;2022-11-15T07:23:21;10.00;99.90
19928;DHT22;10126;50.876;4.470;2022-11-15T07:25:21;10.10;99.90
19928;DHT22;10126;50.876;4.470;2022-11-15T07:27:22;10.20;99.90
19928;DHT22;10126;50.876;4.470;2022-11-15T07:29:23;10.30;99.90
19928;DHT22;10126;50.876;4.470;2022-11-15T07:31:23;10.30;99.90
19928;DHT22;10126;50.876;4.470;2022-11-15T07:33:24;10.40;99.90
19928;DHT22;10126;50.876;4.470;2022-11-15T07:35:25;10.40;99.90
19928;DHT22;10126;50.876;4.470;2022-11-15T07:37:26;10.30;99.90
19928;DHT22;10126;50.876;4.470;2022-11-15T07:39:27;10.40;99.90
19928;DHT22;10126;50.876;4.470;2022-11-15T07:41:28;10.40;99.90
19928;DHT22;10126;50.876;4.470;2022-11-15T07:43:29;10.50;99.90
19928;DHT22;10126;50.876;4.470;2022-11-15T07:45:33;10.40;99.90
19928;DHT22;10126;50.876;4.470;2022-11-15T07:47:36;10.40;99.90
19928;DHT22;10126;50.876;4.470;2022-11-15T07:49:37;10.40;99.90
19928;DHT22;10126;50.876;4.470;2022-11-15T07:51:37;10.40;99.90
19928;DHT22;10126;50.876;4.470;2022-11-15T07:53:38;10.40;99.90
19928;DHT22;10126;50.876;4.470;2022-11-15T07:55:40;10.50;99.90
19928;DHT22;10126;50.876;4.470;2022-11-15T07:57:41;10.60;99.90
19928;DHT22;10126;50.876;4.470;2022-11-15T07:59:41;10.70;99.90
19928;DHT22;10126;50.876;4.470;2022-11-15T08:01:42;10.80;99.90
19928;DHT22;10126;50.876;4.470;2022-11-15T08:03:42;10.80;99.90
19928;DHT22;10126;50.876;4.470;2022-11-15T08:05:50;10.90;99.90
19928;DHT22;10126;50.876;4.470;2022-11-15T08:07:51;11.00;99.90
19928;DHT22;10126;50.876;4.470;2022-11-15T08:09:51;11.10;99.90
19928;DHT22;10126;50.876;4.470;2022-11-15T08:11:52;11.10;99.90
19928;DHT22;10126;50.876;4.470;2022-11-15T08:13:53;11.00;99.90
19928;DHT22;10126;50.876;4.470;2022-11-15T08:15:58;11.00;99.90
19928;DHT22;10126;50.876;4.470;2022-11-15T08:18:04;11.10;99.90
19928;DHT22;10126;50.876;4.470;2022-11-15T08:20:05;11.10;99.90
19928;DHT22;10126;50.876;4.470;2022-11-15T08:22:06;11.10;99.90
19928;DHT22;10126;50.876;4.470;2022-11-15T08:24:09;11.20;99.90
19928;DHT22;10126;50.876;4.470;2022-11-15T08:26:10;11.20;99.90
19928;DHT22;10126;50.876;4.470;2022-11-15T08:28:11;11.30;99.90
19928;DHT22;10126;50.876;4.470;2022-11-15T08:30:12;11.40;99.90
19928;DHT22;10126;50.876;4.470;2022-11-15T08:32:12;11.50;99.90
19928;DHT22;10126;50.876;4.470;2022-11-15T08:34:13;11.50;99.90
19928;DHT22;10126;50.876;4.470;2022-11-15T08:36:16;11.50;99.90
19928;DHT22;10126;50.876;4.470;2022-11-15T08:38:17;11.30;99.90
19928;DHT22;10126;50.876;4.470;2022-11-15T08:40:17;11.40;99.90
19928;DHT22;10126;50.876;4.470;2022-11-15T08:42:19;11.30;99.90
19928;DHT22;10126;50.876;4.470;2022-11-15T08:44:19;11.30;99.90
19928;DHT22;10126;50.876;4.470;2022-11-15T08:46:20;11.30;99.90
19928;DHT22;10126;50.876;4.470;2022-11-15T08:48:20;11.40;99.90
19928;DHT22;10126;50.876;4.470;2022-11-15T08:50:21;11.50;99.90
19928;DHT22;10126;50.876;4.470;2022-11-15T08:52:22;11.60;99.90
19928;DHT22;10126;50.876;4.470;2022-11-15T08:54:22;11.70;99.90
19928;DHT22;10126;50.876;4.470;2022-11-15T08:56:23;11.70;99.90
19928;DHT22;10126;50.876;4.470;2022-11-15T08:58:24;11.70;99.90
19928;DHT22;10126;50.876;4.470;2022-11-15T09:00:24;11.70;99.90
19928;DHT22;10126;50.876;4.470;2022-11-15T09:02:25;11.60;99.90
19928;DHT22;10126;50.876;4.470;2022-11-15T09:04:26;11.60;99.90
19928;DHT22;10126;50.876;4.470;2022-11-15T09:06:26;11.60;99.90
19928;DHT22;10126;50.876;4.470;2022-11-15T09:08:30;11.60;99.90
19928;DHT22;10126;50.876;4.470;2022-11-15T09:10:31;11.90;99.90
19928;DHT22;10126;50.876;4.470;2022-11-15T09:12:32;12.00;99.90
19928;DHT22;10126;50.876;4.470;2022-11-15T09:14:32;12.10;99.90
19928;DHT22;10126;50.876;4.470;2022-11-15T09:16:33;11.90;99.90
19928;DHT22;10126;50.876;4.470;2022-11-15T09:18:34;11.90;99.90
19928;DHT22;10126;50.876;4.470;2022-11-15T09:20:35;12.00;99.90
19928;DHT22;10126;50.876;4.470;2022-11-15T09:22:36;12.20;99.90
19928;DHT22;10126;50.876;4.470;2022-11-15T09:24:36;12.20;99.90
19928;DHT22;10126;50.876;4.470;2022-11-15T09:26:37;12.20;99.90
19928;DHT22;10126;50.876;4.470;2022-11-15T09:28:38;12.20;99.90
19928;DHT22;10126;50.876;4.470;2022-11-15T09:30:42;12.10;99.90
19928;DHT22;10126;50.876;4.470;2022-11-15T09:32:42;12.30;99.90
19928;DHT22;10126;50.876;4.470;2022-11-15T09:34:43;12.20;99.90
19928;DHT22;10126;50.876;4.470;2022-11-15T09:36:43;12.30;99.90
19928;DHT22;10126;50.876;4.470;2022-11-15T09:38:44;12.40;99.90
19928;DHT22;10126;50.876;4.470;2022-11-15T09:40:51;12.50;99.90
19928;DHT22;10126;50.876;4.470;2022-11-15T09:45:23;12.60;99.90
19928;DHT22;10126;50.876;4.470;2022-11-15T09:49:58;12.70;99.90
19928;DHT22;10126;50.876;4.470;2022-11-15T09:52:00;12.70;99.90
19928;DHT22;10126;50.876;4.470;2022-11-15T10:00:44;12.70;99.90
19928;DHT22;10126;50.876;4.470;2022-11-15T10:03:08;12.70;99.90
19928;DHT22;10126;50.876;4.470;2022-11-15T10:05:12;12.60;99.90
19928;DHT22;10126;50.876;4.470;2022-11-15T10:07:39;12.70;99.90
19928;DHT22;10126;50.876;4.470;2022-11-15T10:10:00;12.70;99.90
19928;DHT22;10126;50.876;4.470;2022-11-15T10:12:02;12.80;99.90
19928;DHT22;10126;50.876;4.470;2022-11-15T10:14:13;12.90;99.90
19928;DHT22;10126;50.876;4.470;2022-11-15T10:20:59;12.70;99.90
19928;DHT22;10126;50.876;4.470;2022-11-15T10:23:02;12.70;99.90
19928;DHT22;10126;50.876;4.470;2022-11-15T10:27:14;12.70;99.90
19928;DHT22;10126;50.876;4.470;2022-11-15T10:29:22;12.80;99.90
19928;DHT22;10126;50.876;4.470;2022-11-15T10:31:26;12.90;99.90
19928;DHT22;10126;50.876;4.470;2022-11-15T10:33:38;12.90;99.90
19928;DHT22;10126;50.876;4.470;2022-11-15T10:35:39;12.90;99.90
19928;DHT22;10126;50.876;4.470;2022-11-15T10:37:40;13.00;99.90
19928;DHT22;10126;50.876;4.470;2022-11-15T10:39:40;13.10;99.90
19928;DHT22;10126;50.876;4.470;2022-11-15T10:41:42;13.20;99.90
19928;DHT22;10126;50.876;4.470;2022-11-15T10:43:43;13.20;99.90
19928;DHT22;10126;50.876;4.470;2022-11-15T10:45:45;13.20;99.90
19928;DHT22;10126;50.876;4.470;2022-11-15T10:47:46;13.40;99.90
19928;DHT22;10126;50.876;4.470;2022-11-15T10:49:56;13.50;99.90
19928;DHT22;10126;50.876;4.470;2022-11-15T10:54:02;13.70;99.90
19928;DHT22;10126;50.876;4.470;2022-11-15T10:56:08;13.90;99.90
19928;DHT22;10126;50.876;4.470;2022-11-15T10:58:49;14.00;99.90
19928;DHT22;10126;50.876;4.470;2022-11-15T11:00:52;14.10;99.90
19928;DHT22;10126;50.876;4.470;2022-11-15T11:03:01;14.10;99.90
19928;DHT22;10126;50.876;4.470;2022-11-15T11:05:05;14.10;99.90
19928;DHT22;10126;50.876;4.470;2022-11-15T11:07:20;14.10;99.90
19928;DHT22;10126;50.876;4.470;2022-11-15T11:11:46;14.00;99.90
19928;DHT22;10126;50.876;4.470;2022-11-15T11:13:47;14.20;99.90
19928;DHT22;10126;50.876;4.470;2022-11-15T11:15:57;14.20;99.90
19928;DHT22;10126;50.876;4.470;2022-11-15T11:18:07;14.10;99.90
19928;DHT22;10126;50.876;4.470;2022-11-15T11:27:18;14.20;99.90
19928;DHT22;10126;50.876;4.470;2022-11-15T11:31:58;14.10;99.90
19928;DHT22;10126;50.876;4.470;2022-11-15T11:36:26;14.30;99.90
19928;DHT22;10126;50.876;4.470;2022-11-15T11:40:44;14.40;99.90
19928;DHT22;10126;50.876;4.470;2022-11-15T11:47:46;14.50;99.90
19928;DHT22;10126;50.876;4.470;2022-11-15T11:50:00;14.60;99.90
19928;DHT22;10126;50.876;4.470;2022-11-15T11:54:42;14.70;99.90
19928;DHT22;10126;50.876;4.470;2022-11-15T11:56:41;14.90;99.90
19928;DHT22;10126;50.876;4.470;2022-11-15T11:58:44;14.80;99.90
19928;DHT22;10126;50.876;4.470;2022-11-15T12:01:12;14.80;99.90
19928;DHT22;10126;50.876;4.470;2022-11-15T12:05:48;14.60;99.90
19928;DHT22;10126;50.876;4.470;2022-11-15T12:07:53;14.60;99.90
19928;DHT22;10126;50.876;4.470;2022-11-15T12:09:59;14.50;99.90
19928;DHT22;10126;50.876;4.470;2022-11-15T12:12:27;14.70;99.90
19928;DHT22;10126;50.876;4.470;2022-11-15T12:17:01;14.70;99.90
19928;DHT22;10126;50.876;4.470;2022-11-15T12:19:03;14.70;99.90
19928;DHT22;10126;50.876;4.470;2022-11-15T12:21:32;14.70;99.90
19928;DHT22;10126;50.876;4.470;2022-11-15T12:23:46;14.90;99.90
19928;DHT22;10126;50.876;4.470;2022-11-15T12:26:11;14.90;99.90
19928;DHT22;10126;50.876;4.470;2022-11-15T12:28:16;14.60;99.90
19928;DHT22;10126;50.876;4.470;2022-11-15T12:30:20;14.50;99.90
19928;DHT22;10126;50.876;4.470;2022-11-15T12:32:37;14.40;99.90
19928;DHT22;10126;50.876;4.470;2022-11-15T12:34:43;14.30;99.90
19928;DHT22;10126;50.876;4.470;2022-11-15T12:36:44;14.40;99.90
19928;DHT22;10126;50.876;4.470;2022-11-15T12:41:14;14.50;99.90
19928;DHT22;10126;50.876;4.470;2022-11-15T12:47:26;14.70;99.90
19928;DHT22;10126;50.876;4.470;2022-11-15T12:53:43;14.60;99.90
19928;DHT22;10126;50.876;4.470;2022-11-15T12:58:27;14.50;99.90
19928;DHT22;10126;50.876;4.470;2022-11-15T13:02:38;14.60;99.90
19928;DHT22;10126;50.876;4.470;2022-11-15T13:04:40;14.60;99.90
19928;DHT22;10126;50.876;4.470;2022-11-15T13:08:54;14.80;99.90
19928;DHT22;10126;50.876;4.470;2022-11-15T13:10:55;14.90;99.90
19928;DHT22;10126;50.876;4.470;2022-11-15T13:12:57;14.90;99.90
19928;DHT22;10126;50.876;4.470;2022-11-15T13:17:29;15.10;99.90
19928;DHT22;10126;50.876;4.470;2022-11-15T13:19:30;15.30;99.90
19928;DHT22;10126;50.876;4.470;2022-11-15T13:21:31;15.40;99.90
19928;DHT22;10126;50.876;4.470;2022-11-15T13:23:54;15.30;99.90
19928;DHT22;10126;50.876;4.470;2022-11-15T13:26:15;15.40;99.90
19928;DHT22;10126;50.876;4.470;2022-11-15T13:28:22;15.30;99.90
19928;DHT22;10126;50.876;4.470;2022-11-15T13:30:27;15.20;99.90
19928;DHT22;10126;50.876;4.470;2022-11-15T13:32:29;15.10;99.90
19928;DHT22;10126;50.876;4.470;2022-11-15T13:34:31;15.00;99.90
19928;DHT22;10126;50.876;4.470;2022-11-15T13:36:36;15.00;99.90
19928;DHT22;10126;50.876;4.470;2022-11-15T13:38:38;14.90;99.90
19928;DHT22;10126;50.876;4.470;2022-11-15T13:40:40;14.80;99.90
19928;DHT22;10126;50.876;4.470;2022-11-15T13:42:40;14.80;99.90
19928;DHT22;10126;50.876;4.470;2022-11-15T13:44:58;14.80;99.90
19928;DHT22;10126;50.876;4.470;2022-11-15T13:47:18;14.70;99.90
19928;DHT22;10126;50.876;4.470;2022-11-15T13:49:29;14.70;99.90
19928;DHT22;10126;50.876;4.470;2022-11-15T13:53:34;14.70;99.90
19928;DHT22;10126;50.876;4.470;2022-11-15T13:55:37;14.70;99.90
19928;DHT22;10126;50.876;4.470;2022-11-15T13:57:56;14.70;99.90
19928;DHT22;10126;50.876;4.470;2022-11-15T14:00:02;14.80;99.90
19928;DHT22;10126;50.876;4.470;2022-11-15T14:04:45;14.80;99.90
19928;DHT22;10126;50.876;4.470;2022-11-15T14:06:52;14.70;99.90
19928;DHT22;10126;50.876;4.470;2022-11-15T14:09:15;14.70;99.90
19928;DHT22;10126;50.876;4.470;2022-11-15T14:11:19;14.70;99.90
19928;DHT22;10126;50.876;4.470;2022-11-15T14:13:30;14.70;99.90
19928;DHT22;10126;50.876;4.470;2022-11-15T14:15:36;14.70;99.90
19928;DHT22;10126;50.876;4.470;2022-11-15T14:17:37;14.50;99.90
19928;DHT22;10126;50.876;4.470;2022-11-15T14:19:39;14.40;99.90
19928;DHT22;10126;50.876;4.470;2022-11-15T14:22:20;14.40;99.90
19928;DHT22;10126;50.876;4.470;2022-11-15T14:24:21;14.30;99.90
19928;DHT22;10126;50.876;4.470;2022-11-15T14:26:33;14.20;99.90
19928;DHT22;10126;50.876;4.470;2022-11-15T14:28:35;14.30;99.90
19928;DHT22;10126;50.876;4.470;2022-11-15T14:30:39;14.30;99.90
19928;DHT22;10126;50.876;4.470;2022-11-15T14:32:49;14.30;99.90
19928;DHT22;10126;50.876;4.470;2022-11-15T14:34:59;14.00;99.90
19928;DHT22;10126;50.876;4.470;2022-11-15T14:37:00;14.10;99.90
19928;DHT22;10126;50.876;4.470;2022-11-15T14:39:00;14.10;99.90
19928;DHT22;10126;50.876;4.470;2022-11-15T14:41:02;14.00;99.90
19928;DHT22;10126;50.876;4.470;2022-11-15T14:43:03;14.10;99.90
19928;DHT22;10126;50.876;4.470;2022-11-15T14:45:15;14.00;99.90
19928;DHT22;10126;50.876;4.470;2022-11-15T14:47:16;14.00;99.90
19928;DHT22;10126;50.876;4.470;2022-11-15T14:49:17;14.00;99.90
19928;DHT22;10126;50.876;4.470;2022-11-15T14:51:18;13.90;99.90
19928;DHT22;10126;50.876;4.470;2022-11-15T14:53:19;13.90;99.90